Time;durP1;ratioP1;P1;durP2;ratioP2;P2;SDS_P1;SDS_P2;PMS_P1;PMS_P2;Temp;Humidity;BMP_temperature;BMP_pressure;BME280_temperature;BME280_humidity;BME280_pressure;Samples;Min_cycle;Max_cycle;Signal;HPM_P1;HPM_P2
2024/01/30 00:00:28;;;;;;;7.67;6.67;;;22.10;53.10;;;;;;5064929;28;20493;-70
2024/01/30 00:02:56;;;;;;;7.07;6.47;;;22.00;53.10;;;;;;5058028;28;20494;-70
2024/01/30 00:05:25;;;;;;;6.90;6.30;;;22.00;53.00;;;;;;5045321;28;21266;-71
2024/01/30 00:07:53;;;;;;;7.67;7.10;;;22.00;53.00;;;;;;5053668;28;20450;-70
2024/01/30 00:10:21;;;;;;;6.80;6.30;;;22.00;53.00;;;;;;5050825;28;20462;-71
2024/01/30 00:12:50;;;;;;;6.97;6.33;;;22.00;53.00;;;;;;5044869;28;20539;-71
2024/01/30 00:15:18;;;;;;;7.10;6.47;;;22.00;53.00;;;;;;5060364;28;21005;-71
2024/01/30 00:17:47;;;;;;;7.47;6.77;;;22.00;53.00;;;;;;5054997;28;20963;-71
2024/01/30 00:20:16;;;;;;;7.53;6.87;;;22.00;53.00;;;;;;5044314;28;20798;-72
2024/01/30 00:22:44;;;;;;;6.80;6.20;;;22.00;53.00;;;;;;5037661;28;20546;-71
2024/01/30 00:25:12;;;;;;;6.37;5.77;;;22.00;53.00;;;;;;5051183;28;20515;-71
2024/01/30 00:27:41;;;;;;;6.60;6.00;;;22.00;53.00;;;;;;5037201;28;20522;-71
2024/01/30 00:30:10;;;;;;;6.83;6.23;;;21.90;53.00;;;;;;5051076;28;20454;-71
2024/01/30 00:32:38;;;;;;;6.53;6.03;;;21.90;53.00;;;;;;5055373;28;20459;-71
2024/01/30 00:35:10;;;;;;;7.10;6.50;;;21.90;53.00;;;;;;5051664;28;20476;-70
2024/01/30 00:37:38;;;;;;;6.20;5.70;;;21.90;53.00;;;;;;5050149;28;20957;-70
2024/01/30 00:40:07;;;;;;;7.17;6.57;;;21.90;53.00;;;;;;5051339;28;20460;-71
2024/01/30 00:42:38;;;;;;;6.83;6.23;;;21.80;53.00;;;;;;5054658;28;20900;-70
2024/01/30 00:45:07;;;;;;;6.37;5.87;;;21.80;53.00;;;;;;5043406;28;21073;-76
2024/01/30 00:47:35;;;;;;;7.37;6.67;;;21.80;53.00;;;;;;5051188;28;20539;-72
2024/01/30 00:50:04;;;;;;;7.47;6.90;;;21.80;53.00;;;;;;5046315;28;20457;-70
2024/01/30 00:52:33;;;;;;;7.97;7.23;;;21.80;53.00;;;;;;5054428;28;20736;-72
2024/01/30 00:55:02;;;;;;;7.70;7.00;;;21.80;53.00;;;;;;5072972;28;20468;-70
2024/01/30 00:57:31;;;;;;;5.80;5.23;;;21.80;53.00;;;;;;5056223;28;21153;-73
2024/01/30 00:59:59;;;;;;;6.63;6.03;;;21.80;52.90;;;;;;5039990;28;20460;-73
2024/01/30 01:02:27;;;;;;;7.07;6.37;;;21.80;52.90;;;;;;5051408;28;20474;-70
2024/01/30 01:04:55;;;;;;;7.20;6.60;;;21.80;52.90;;;;;;5063130;28;20460;-75
2024/01/30 01:07:24;;;;;;;6.00;5.60;;;21.70;52.90;;;;;;5044357;28;20557;-72
2024/01/30 01:09:53;;;;;;;6.40;5.80;;;21.70;52.90;;;;;;5048105;28;20464;-70
2024/01/30 01:12:22;;;;;;;7.17;6.50;;;21.70;53.00;;;;;;5035956;28;20491;-75
2024/01/30 01:14:50;;;;;;;7.27;6.60;;;21.70;52.90;;;;;;5046268;28;20475;-71
2024/01/30 01:17:18;;;;;;;7.17;6.57;;;21.70;52.90;;;;;;5047290;28;20457;-71
2024/01/30 01:19:47;;;;;;;8.33;7.63;;;21.70;52.90;;;;;;5048378;28;20820;-71
2024/01/30 01:22:17;;;;;;;7.57;6.57;;;21.70;52.90;;;;;;5049886;28;20543;-70
2024/01/30 01:24:45;;;;;;;7.10;6.40;;;21.70;52.90;;;;;;5048134;28;20510;-70
2024/01/30 01:27:15;;;;;;;6.90;6.30;;;21.70;52.90;;;;;;5049514;28;20470;-74
2024/01/30 01:29:43;;;;;;;7.03;6.33;;;21.70;52.90;;;;;;5042263;28;20461;-70
2024/01/30 01:32:11;;;;;;;6.40;5.90;;;21.60;53.00;;;;;;5045044;28;20456;-73
2024/01/30 01:34:40;;;;;;;7.07;6.47;;;21.70;53.00;;;;;;5054625;28;20456;-73
2024/01/30 01:37:08;;;;;;;6.07;5.57;;;21.60;53.00;;;;;;5046720;28;20937;-79
2024/01/30 01:39:37;;;;;;;6.37;5.87;;;21.60;53.00;;;;;;5054564;28;20504;-71
2024/01/30 01:42:05;;;;;;;7.83;6.80;;;21.60;53.00;;;;;;5049930;28;21099;-71
2024/01/30 01:44:35;;;;;;;6.57;6.07;;;21.60;52.90;;;;;;5051771;28;20862;-70
2024/01/30 01:47:04;;;;;;;7.10;6.50;;;21.60;52.90;;;;;;5050476;28;20463;-74
2024/01/30 01:49:32;;;;;;;6.10;5.60;;;21.60;52.90;;;;;;5040824;28;20457;-69
2024/01/30 01:52:01;;;;;;;6.10;5.63;;;21.60;52.90;;;;;;5045301;28;20600;-72
2024/01/30 01:54:31;;;;;;;6.30;5.80;;;21.60;52.90;;;;;;5046596;28;20475;-70
2024/01/30 01:56:59;;;;;;;5.90;5.50;;;21.60;52.90;;;;;;5052022;28;20966;-72
2024/01/30 01:59:28;;;;;;;6.03;5.57;;;21.60;52.90;;;;;;5042391;28;21000;-70
2024/01/30 02:01:58;;;;;;;6.37;5.87;;;21.60;52.90;;;;;;5039499;28;20520;-74
2024/01/30 02:04:26;;;;;;;6.27;5.77;;;21.60;52.90;;;;;;5041960;28;20454;-71
2024/01/30 02:06:55;;;;;;;6.70;6.10;;;21.60;52.80;;;;;;5043494;28;20480;-70
2024/01/30 02:09:23;;;;;;;7.03;6.40;;;21.60;52.80;;;;;;5047754;28;20456;-69
2024/01/30 02:11:52;;;;;;;6.23;5.63;;;21.60;52.80;;;;;;5047258;28;20448;-70
2024/01/30 02:14:21;;;;;;;7.20;6.60;;;21.60;52.80;;;;;;5067753;28;20455;-70
2024/01/30 02:16:49;;;;;;;6.30;5.80;;;21.60;52.80;;;;;;5050063;28;20473;-70
2024/01/30 02:19:19;;;;;;;6.27;5.80;;;21.60;52.80;;;;;;5041542;28;20517;-74
2024/01/30 02:21:50;;;;;;;6.80;6.20;;;21.60;52.80;;;;;;5050073;28;20527;-69
2024/01/30 02:24:18;;;;;;;6.70;6.20;;;21.50;52.80;;;;;;5064798;28;21064;-70
2024/01/30 02:26:46;;;;;;;6.20;5.60;;;21.50;52.80;;;;;;5058110;28;20963;-69
2024/01/30 02:29:18;;;;;;;6.00;5.50;;;21.50;52.80;;;;;;5049471;28;20476;-69
2024/01/30 02:31:46;;;;;;;6.57;6.07;;;21.50;52.80;;;;;;5049844;28;20460;-69
2024/01/30 02:34:15;;;;;;;5.70;5.20;;;21.50;52.80;;;;;;5056111;28;20468;-69
2024/01/30 02:36:43;;;;;;;6.37;5.77;;;21.50;52.80;;;;;;5037928;28;21041;-69
2024/01/30 02:39:13;;;;;;;6.30;5.80;;;21.50;52.80;;;;;;5048471;28;20488;-69
2024/01/30 02:41:41;;;;;;;6.43;5.83;;;21.50;52.80;;;;;;5043222;28;20478;-69
2024/01/30 02:44:10;;;;;;;6.23;5.77;;;21.50;52.70;;;;;;5050864;28;20890;-70
2024/01/30 02:46:38;;;;;;;6.57;6.00;;;21.50;52.80;;;;;;5042382;28;20467;-70
2024/01/30 02:49:06;;;;;;;5.73;5.23;;;21.50;52.70;;;;;;5046151;28;20697;-74
2024/01/30 02:51:35;;;;;;;6.10;5.60;;;21.50;52.70;;;;;;5041025;28;21032;-73
2024/01/30 02:54:03;;;;;;;6.47;5.87;;;21.50;52.70;;;;;;5048824;28;20956;-69
2024/01/30 02:56:32;;;;;;;6.03;5.53;;;21.40;52.70;;;;;;5049440;28;20563;-70
2024/01/30 02:59:01;;;;;;;5.67;5.17;;;21.40;52.70;;;;;;5049090;28;20467;-70
2024/01/30 03:01:29;;;;;;;6.37;5.90;;;21.40;52.70;;;;;;5035799;28;20468;-70
2024/01/30 03:03:57;;;;;;;5.90;5.40;;;21.40;52.70;;;;;;5044835;28;20461;-70
2024/01/30 03:06:25;;;;;;;6.07;5.57;;;21.40;52.80;;;;;;5050203;28;20460;-72
2024/01/30 03:08:54;;;;;;;5.77;5.27;;;21.40;52.70;;;;;;5039064;28;21012;-69
2024/01/30 03:11:22;;;;;;;6.60;5.60;;;21.40;52.70;;;;;;5047643;28;20468;-69
2024/01/30 03:13:52;;;;;;;6.13;5.43;;;21.40;52.70;;;;;;5039705;28;20472;-76
2024/01/30 03:16:20;;;;;;;5.43;5.00;;;21.30;52.70;;;;;;5050344;28;20483;-69
2024/01/30 03:18:49;;;;;;;5.80;5.40;;;21.30;52.70;;;;;;5049651;28;20799;-75
2024/01/30 03:21:17;;;;;;;6.33;5.83;;;21.30;52.70;;;;;;5045416;28;20463;-69
2024/01/30 03:23:45;;;;;;;6.40;5.80;;;21.30;52.70;;;;;;5046564;28;20503;-69
2024/01/30 03:26:15;;;;;;;5.37;4.87;;;21.30;52.70;;;;;;5051207;28;20888;-69
2024/01/30 03:28:43;;;;;;;5.67;5.27;;;21.30;52.70;;;;;;5049788;28;20805;-69
2024/01/30 03:31:16;;;;;;;5.83;5.33;;;21.30;52.70;;;;;;5052095;28;20451;-70
2024/01/30 03:33:45;;;;;;;6.10;5.50;;;21.30;52.70;;;;;;5050968;28;20543;-69
2024/01/30 03:36:13;;;;;;;5.73;5.23;;;21.30;52.70;;;;;;5049189;28;20471;-69
2024/01/30 03:38:41;;;;;;;5.90;5.40;;;21.30;52.70;;;;;;5050065;28;20438;-70
2024/01/30 03:41:10;;;;;;;6.37;5.77;;;21.30;52.70;;;;;;5037613;28;20471;-69
2024/01/30 03:43:38;;;;;;;6.27;5.77;;;21.20;52.70;;;;;;5058170;28;20454;-69
2024/01/30 03:46:06;;;;;;;5.77;5.30;;;21.20;52.70;;;;;;5046559;28;21364;-69
2024/01/30 03:48:36;;;;;;;5.70;5.30;;;21.20;52.70;;;;;;5047602;28;20460;-72
2024/01/30 03:51:05;;;;;;;5.97;5.47;;;21.20;52.70;;;;;;5039942;28;20867;-70
2024/01/30 03:53:33;;;;;;;5.80;5.40;;;21.20;52.70;;;;;;5054367;28;20969;-76
2024/01/30 03:56:03;;;;;;;5.23;4.83;;;21.20;52.70;;;;;;5047411;28;20463;-77
2024/01/30 03:58:31;;;;;;;4.87;4.50;;;21.20;52.70;;;;;;5047816;28;20501;-70
2024/01/30 04:00:59;;;;;;;5.10;4.70;;;21.20;52.80;;;;;;5043163;28;20960;-70
2024/01/30 04:03:27;;;;;;;5.30;4.83;;;21.20;52.70;;;;;;5051015;28;20474;-70
2024/01/30 04:05:57;;;;;;;5.13;4.77;;;21.20;52.70;;;;;;5043101;28;20456;-69
2024/01/30 04:08:26;;;;;;;5.50;5.10;;;21.20;52.70;;;;;;5041575;28;20488;-73
2024/01/30 04:10:54;;;;;;;4.90;4.50;;;21.20;52.70;;;;;;5044182;28;20459;-69
2024/01/30 04:13:23;;;;;;;5.90;5.00;;;21.20;52.70;;;;;;5046642;28;20466;-71
2024/01/30 04:15:51;;;;;;;5.70;5.10;;;21.20;52.70;;;;;;5055506;28;21029;-69
2024/01/30 04:18:20;;;;;;;5.30;4.90;;;21.10;52.70;;;;;;5049838;28;20471;-73
2024/01/30 04:20:48;;;;;;;6.90;5.27;;;21.10;52.70;;;;;;5043258;28;20455;-69
2024/01/30 04:23:18;;;;;;;5.60;5.20;;;21.10;52.70;;;;;;5054661;28;20490;-69
2024/01/30 04:25:46;;;;;;;5.60;5.20;;;21.10;52.70;;;;;;5059160;28;20471;-69
2024/01/30 04:28:14;;;;;;;5.43;4.93;;;21.10;52.70;;;;;;5045318;28;20943;-71
2024/01/30 04:30:43;;;;;;;5.80;5.30;;;21.10;52.70;;;;;;5044035;28;20455;-70
2024/01/30 04:33:12;;;;;;;5.70;5.30;;;21.10;52.70;;;;;;5045138;28;20554;-70
2024/01/30 04:35:40;;;;;;;5.83;5.33;;;21.10;52.70;;;;;;5040780;28;20463;-70
2024/01/30 04:38:08;;;;;;;5.00;4.60;;;21.10;52.70;;;;;;5033054;28;20956;-69
2024/01/30 04:40:38;;;;;;;6.07;5.47;;;21.10;52.70;;;;;;5036787;28;20457;-69
2024/01/30 04:43:06;;;;;;;5.47;5.00;;;21.10;52.70;;;;;;5048163;28;20454;-69
2024/01/30 04:45:34;;;;;;;4.70;4.30;;;21.00;52.70;;;;;;5045058;28;20457;-72
2024/01/30 04:48:03;;;;;;;5.40;5.00;;;21.10;52.70;;;;;;5048152;28;20468;-69
2024/01/30 04:50:31;;;;;;;5.37;4.97;;;21.00;52.70;;;;;;5046195;28;21062;-71
2024/01/30 04:53:00;;;;;;;6.00;5.47;;;21.00;52.70;;;;;;5052805;28;20469;-69
2024/01/30 04:55:28;;;;;;;5.17;4.77;;;21.00;52.70;;;;;;5053831;28;20462;-70
2024/01/30 04:57:58;;;;;;;5.73;5.23;;;21.10;52.70;;;;;;5039425;28;20472;-69
2024/01/30 05:00:26;;;;;;;4.83;4.43;;;21.00;52.70;;;;;;5047772;28;20563;-72
2024/01/30 05:02:56;;;;;;;5.43;5.03;;;21.10;52.70;;;;;;5053244;28;20513;-69
2024/01/30 05:05:24;;;;;;;5.97;5.47;;;21.10;52.70;;;;;;5048430;28;20453;-69
2024/01/30 05:07:53;;;;;;;5.00;4.70;;;21.10;52.60;;;;;;5044664;28;20962;-70
2024/01/30 05:10:21;;;;;;;5.80;5.23;;;21.10;52.60;;;;;;5045216;28;20479;-70
2024/01/30 05:12:49;;;;;;;4.70;4.30;;;21.20;52.60;;;;;;5041744;28;20460;-69
2024/01/30 05:15:20;;;;;;;5.87;5.40;;;21.20;52.60;;;;;;5046030;28;20556;-69
2024/01/30 05:17:48;;;;;;;5.20;4.80;;;21.20;52.50;;;;;;5036563;28;20481;-71
2024/01/30 05:20:17;;;;;;;4.90;4.50;;;21.20;52.50;;;;;;5034023;28;20617;-70
2024/01/30 05:22:46;;;;;;;5.00;4.50;;;21.30;52.50;;;;;;5048478;28;20465;-70
2024/01/30 05:25:14;;;;;;;4.53;4.13;;;21.30;52.50;;;;;;5037798;28;20452;-72
2024/01/30 05:27:42;;;;;;;4.60;4.30;;;21.30;52.50;;;;;;5032362;28;20466;-71
2024/01/30 05:30:12;;;;;;;4.90;4.60;;;21.30;52.50;;;;;;5036036;28;20475;-70
2024/01/30 05:32:41;;;;;;;5.17;4.77;;;21.30;52.50;;;;;;5041361;28;20456;-71
2024/01/30 05:35:10;;;;;;;5.10;4.70;;;21.30;52.50;;;;;;5042548;28;20457;-70
2024/01/30 05:37:38;;;;;;;4.97;4.57;;;21.40;52.50;;;;;;5037072;28;20477;-77
2024/01/30 05:40:09;;;;;;;4.87;4.50;;;21.40;52.60;;;;;;5036821;28;20447;-79
2024/01/30 05:42:38;;;;;;;5.10;4.67;;;21.40;52.60;;;;;;5041959;28;20506;-75
2024/01/30 05:45:07;;;;;;;4.73;4.33;;;21.40;52.60;;;;;;5046388;28;20469;-70
2024/01/30 05:47:36;;;;;;;5.00;4.60;;;21.50;52.70;;;;;;5038168;28;20470;-71
2024/01/30 05:50:07;;;;;;;5.77;5.20;;;21.50;52.80;;;;;;5046962;28;20457;-77
2024/01/30 05:52:36;;;;;;;4.43;4.13;;;21.50;53.00;;;;;;5039793;28;20477;-71
2024/01/30 05:55:05;;;;;;;5.10;4.60;;;21.60;53.00;;;;;;5031740;28;20507;-71
2024/01/30 05:57:34;;;;;;;4.90;4.50;;;21.60;53.10;;;;;;5043188;28;20481;-71
2024/01/30 06:00:02;;;;;;;4.50;4.20;;;21.60;53.10;;;;;;5041037;28;20449;-71
2024/01/30 06:02:31;;;;;;;4.43;3.93;;;21.60;53.10;;;;;;5044028;28;20446;-71
2024/01/30 06:05:00;;;;;;;4.23;3.93;;;21.70;53.10;;;;;;5050488;28;20462;-71
2024/01/30 06:07:29;;;;;;;4.97;4.50;;;21.70;53.00;;;;;;5049785;28;20957;-71
2024/01/30 06:10:04;;;;;;;4.27;3.93;;;21.70;53.00;;;;;;5040544;28;20449;-73
2024/01/30 06:12:32;;;;;;;4.47;4.17;;;21.70;52.90;;;;;;5046053;28;20465;-70
2024/01/30 06:15:00;;;;;;;4.83;4.43;;;21.70;52.80;;;;;;5034199;28;20521;-76
2024/01/30 06:17:29;;;;;;;5.10;4.60;;;21.70;52.80;;;;;;5034202;28;20483;-71
2024/01/30 06:19:57;;;;;;;4.30;4.00;;;21.70;52.90;;;;;;5029729;28;20461;-71
2024/01/30 06:22:25;;;;;;;4.50;4.17;;;21.70;52.90;;;;;;5044933;28;20453;-73
2024/01/30 06:24:55;;;;;;;5.00;4.60;;;21.70;52.90;;;;;;5051109;28;20551;-70
2024/01/30 06:27:23;;;;;;;4.53;4.13;;;21.70;53.00;;;;;;5039281;28;20455;-71
2024/01/30 06:29:52;;;;;;;5.20;4.73;;;21.70;53.00;;;;;;5049882;28;20438;-71
2024/01/30 06:32:20;;;;;;;4.23;3.93;;;21.70;53.00;;;;;;5034627;28;21375;-76
2024/01/30 06:34:48;;;;;;;4.47;4.07;;;21.70;53.10;;;;;;5045848;28;20956;-70
2024/01/30 06:37:16;;;;;;;7.77;4.60;;;21.60;53.40;;;;;;5044096;28;20490;-70
2024/01/30 06:39:45;;;;;;;4.87;4.20;;;21.60;53.50;;;;;;5048248;28;20447;-70
2024/01/30 06:42:14;;;;;;;4.93;4.53;;;21.60;53.50;;;;;;5036439;28;20563;-74
2024/01/30 06:44:43;;;;;;;4.90;4.50;;;21.60;53.40;;;;;;5037713;28;20556;-74
2024/01/30 06:47:11;;;;;;;5.50;5.00;;;21.60;53.20;;;;;;5029154;28;20467;-72
2024/01/30 06:49:41;;;;;;;6.70;4.80;;;21.60;52.80;;;;;;5033118;28;20499;-74
2024/01/30 06:52:10;;;;;;;6.40;5.80;;;21.60;52.20;;;;;;5036466;28;20477;-74
2024/01/30 06:54:39;;;;;;;7.00;6.07;;;21.50;51.70;;;;;;5040198;28;20464;-70
2024/01/30 06:57:11;;;;;;;9.10;5.73;;;21.50;51.30;;;;;;5041878;28;20456;-71
2024/01/30 06:59:43;;;;;;;6.57;5.97;;;21.50;51.00;;;;;;5041422;28;20477;-72
2024/01/30 07:02:11;;;;;;;6.43;5.83;;;21.50;50.80;;;;;;5043713;28;20451;-72
2024/01/30 07:04:41;;;;;;;5.83;5.37;;;21.50;50.70;;;;;;5042892;28;20462;-73
2024/01/30 07:07:14;;;;;;;5.47;5.00;;;21.40;50.80;;;;;;5041724;28;20457;-71
2024/01/30 07:09:44;;;;;;;6.10;5.50;;;21.40;51.00;;;;;;5046333;28;20867;-72
2024/01/30 07:12:12;;;;;;;5.53;5.03;;;21.50;51.20;;;;;;5049633;28;20562;-71
2024/01/30 07:14:42;;;;;;;6.10;5.30;;;21.50;51.40;;;;;;5051706;28;20444;-71
2024/01/30 07:17:10;;;;;;;6.70;6.00;;;21.50;51.50;;;;;;5048567;28;20463;-72
2024/01/30 07:19:38;;;;;;;5.20;4.73;;;21.50;51.60;;;;;;5037813;28;20476;-76
2024/01/30 07:22:07;;;;;;;6.13;5.10;;;21.50;51.70;;;;;;5043996;28;20445;-71
2024/01/30 07:24:35;;;;;;;4.63;4.27;;;21.50;51.70;;;;;;5038888;28;20577;-73
2024/01/30 07:27:04;;;;;;;5.73;5.20;;;21.60;51.70;;;;;;5033953;28;20455;-71
2024/01/30 07:29:32;;;;;;;5.00;4.50;;;21.60;51.70;;;;;;5031440;28;21073;-81
2024/01/30 07:32:02;;;;;;;5.57;5.07;;;21.60;51.70;;;;;;5041460;28;20486;-77
2024/01/30 07:34:30;;;;;;;5.33;4.67;;;21.60;51.90;;;;;;5043844;28;20475;-78
2024/01/30 07:37:01;;;;;;;6.67;4.80;;;21.70;52.60;;;;;;5039403;28;20457;-76
2024/01/30 07:39:29;;;;;;;12.03;5.03;;;21.70;53.20;;;;;;5038495;28;20988;-77
2024/01/30 07:41:58;;;;;;;8.43;4.90;;;21.70;53.70;;;;;;5044287;28;20485;-78
2024/01/30 07:44:26;;;;;;;7.30;4.77;;;21.70;54.00;;;;;;5044571;28;20456;-77
2024/01/30 07:46:54;;;;;;;6.60;5.10;;;21.70;54.20;;;;;;5036405;28;20458;-77
2024/01/30 07:49:25;;;;;;;5.30;4.80;;;21.80;54.50;;;;;;5040742;28;20453;-77
2024/01/30 07:51:53;;;;;;;8.33;5.37;;;21.80;54.60;;;;;;5047081;28;20466;-76
2024/01/30 07:54:21;;;;;;;5.17;4.77;;;21.80;54.60;;;;;;5047385;28;20453;-78
2024/01/30 07:56:50;;;;;;;5.20;4.70;;;21.80;54.70;;;;;;5051048;28;20563;-78
2024/01/30 07:59:21;;;;;;;5.73;5.23;;;21.80;54.70;;;;;;5045033;28;20477;-78
2024/01/30 08:01:49;;;;;;;4.87;4.47;;;21.80;54.70;;;;;;5047735;28;20460;-77
2024/01/30 08:04:18;;;;;;;5.73;4.97;;;21.80;54.80;;;;;;5047721;28;20941;-77
2024/01/30 08:06:48;;;;;;;9.90;4.87;;;21.90;54.80;;;;;;5044089;28;20461;-77
2024/01/30 08:09:17;;;;;;;5.00;4.40;;;21.90;54.80;;;;;;5047808;28;21011;-77
2024/01/30 08:11:45;;;;;;;6.10;5.10;;;21.90;54.80;;;;;;5047308;28;20463;-78
2024/01/30 08:14:13;;;;;;;5.00;4.50;;;22.00;54.80;;;;;;5041958;28;20452;-79
2024/01/30 08:16:42;;;;;;;4.80;4.40;;;22.00;54.80;;;;;;5043667;28;20457;-79
2024/01/30 08:19:10;;;;;;;4.83;4.43;;;22.00;54.70;;;;;;5046607;28;20555;-78
2024/01/30 08:21:38;;;;;;;5.80;5.30;;;22.00;54.60;;;;;;5046077;28;20915;-79
2024/01/30 08:24:09;;;;;;;4.83;4.43;;;22.00;54.50;;;;;;5043537;28;20496;-78
2024/01/30 08:26:38;;;;;;;4.93;4.47;;;22.10;54.40;;;;;;5043230;28;20473;-78
2024/01/30 08:29:06;;;;;;;4.77;4.37;;;22.10;54.40;;;;;;5042362;28;20457;-82
2024/01/30 08:31:35;;;;;;;9.57;4.80;;;22.10;54.30;;;;;;5039188;28;20549;-77
2024/01/30 08:34:03;;;;;;;4.80;4.40;;;22.10;54.30;;;;;;5045704;28;20486;-79
2024/01/30 08:36:32;;;;;;;4.77;4.37;;;22.10;54.30;;;;;;5043972;28;20462;-76
2024/01/30 08:39:00;;;;;;;6.00;4.13;;;22.10;54.30;;;;;;5039915;28;20486;-79
2024/01/30 08:41:34;;;;;;;4.30;3.90;;;22.20;54.30;;;;;;5042311;28;20874;-77
2024/01/30 08:44:04;;;;;;;4.47;4.17;;;22.20;54.20;;;;;;5045807;28;20464;-78
2024/01/30 08:46:32;;;;;;;5.47;5.00;;;22.20;54.20;;;;;;5042714;28;20458;-78
2024/01/30 08:49:01;;;;;;;5.50;5.00;;;22.20;54.20;;;;;;5042893;28;20455;-77
2024/01/30 08:51:29;;;;;;;4.70;4.30;;;22.20;54.20;;;;;;5043057;28;20861;-80
2024/01/30 08:53:57;;;;;;;4.37;4.03;;;22.20;54.20;;;;;;5042663;28;20473;-80
2024/01/30 08:56:26;;;;;;;4.20;3.70;;;22.20;54.20;;;;;;5043118;28;20461;-80
2024/01/30 08:58:55;;;;;;;4.80;4.40;;;22.20;54.20;;;;;;5041938;28;20970;-79
2024/01/30 09:01:24;;;;;;;4.67;4.27;;;22.20;54.20;;;;;;5046724;28;20461;-79
2024/01/30 09:03:52;;;;;;;4.53;4.07;;;22.20;54.20;;;;;;5042200;28;20804;-79
2024/01/30 09:06:20;;;;;;;4.67;4.23;;;22.20;54.20;;;;;;5044551;28;20470;-79
2024/01/30 09:08:49;;;;;;;4.17;3.87;;;22.20;54.20;;;;;;5047642;28;20461;-79
2024/01/30 09:11:17;;;;;;;4.47;4.07;;;22.20;54.20;;;;;;5046637;28;20473;-79
2024/01/30 09:13:45;;;;;;;5.33;4.90;;;22.20;54.20;;;;;;5042598;28;20461;-78
2024/01/30 09:16:15;;;;;;;3.90;3.70;;;22.20;54.20;;;;;;5042970;28;20451;-80
2024/01/30 09:18:44;;;;;;;4.33;4.03;;;22.20;54.20;;;;;;5040472;28;20485;-79
2024/01/30 09:21:12;;;;;;;4.77;4.30;;;22.30;54.10;;;;;;5042518;28;20505;-80
2024/01/30 09:23:40;;;;;;;5.33;4.17;;;22.30;54.10;;;;;;5047195;28;20491;-79
2024/01/30 09:26:09;;;;;;;5.43;4.13;;;22.30;54.10;;;;;;5049889;28;20452;-79
2024/01/30 09:28:37;;;;;;;4.23;3.93;;;22.30;54.00;;;;;;5040796;28;20563;-79
2024/01/30 09:31:10;;;;;;;3.80;3.50;;;22.30;54.00;;;;;;5043635;28;20480;-79
2024/01/30 09:33:41;;;;;;;4.00;3.70;;;22.30;54.00;;;;;;5046968;28;20524;-79
2024/01/30 09:36:09;;;;;;;4.43;4.00;;;22.30;54.00;;;;;;5047536;28;20466;-78
2024/01/30 09:38:38;;;;;;;3.80;3.60;;;22.40;53.90;;;;;;5044771;28;20961;-83
2024/01/30 09:41:10;;;;;;;3.93;3.53;;;22.40;53.90;;;;;;5039589;28;20490;-84
2024/01/30 09:43:39;;;;;;;3.80;3.53;;;22.40;53.80;;;;;;5042299;28;21015;-84
2024/01/30 09:46:12;;;;;;;4.00;3.70;;;22.40;53.70;;;;;;5032353;28;20789;-84
2024/01/30 09:48:43;;;;;;;5.80;4.27;;;22.40;53.60;;;;;;5037876;28;20509;-84
2024/01/30 09:51:13;;;;;;;3.77;3.47;;;22.30;53.50;;;;;;5051736;28;20516;-84
2024/01/30 09:53:44;;;;;;;4.07;3.73;;;22.40;53.50;;;;;;5036927;28;20544;-84
2024/01/30 09:56:13;;;;;;;3.93;3.63;;;22.30;53.50;;;;;;5051684;28;20436;-84
2024/01/30 09:58:42;;;;;;;3.80;3.50;;;22.30;53.40;;;;;;5051278;28;20464;-84
2024/01/30 10:01:10;;;;;;;3.70;3.40;;;22.30;53.40;;;;;;5043821;28;20802;-83
2024/01/30 10:03:39;;;;;;;4.20;3.90;;;22.30;53.20;;;;;;5043290;28;20471;-84
2024/01/30 10:06:10;;;;;;;4.93;4.40;;;22.30;53.40;;;;;;5070224;28;20430;-84
2024/01/30 10:08:38;;;;;;;4.90;4.40;;;22.30;53.10;;;;;;5069472;28;20446;-85
2024/01/30 10:11:07;;;;;;;4.13;3.83;;;22.30;53.20;;;;;;5069517;28;20895;-84
2024/01/30 10:13:35;;;;;;;3.90;3.60;;;22.30;53.20;;;;;;5066606;28;20460;-83
2024/01/30 10:16:06;;;;;;;4.30;3.90;;;22.30;53.40;;;;;;5049916;28;20548;-84
2024/01/30 10:18:34;;;;;;;5.30;3.90;;;22.30;53.40;;;;;;5034832;28;20504;-84
2024/01/30 10:21:04;;;;;;;5.00;4.60;;;22.20;53.30;;;;;;5034672;28;20921;-76
2024/01/30 10:23:34;;;;;;;4.27;3.87;;;22.20;53.30;;;;;;5042643;28;20481;-75
2024/01/30 10:26:04;;;;;;;4.60;4.20;;;22.20;53.40;;;;;;5042856;28;20905;-76
2024/01/30 10:28:33;;;;;;;4.13;3.73;;;22.30;53.60;;;;;;5044452;28;20458;-75
2024/01/30 10:31:03;;;;;;;3.80;3.50;;;22.30;53.60;;;;;;5042341;28;20519;-76
2024/01/30 10:33:34;;;;;;;4.00;3.70;;;22.40;53.70;;;;;;5045317;28;20731;-74
2024/01/30 10:36:04;;;;;;;3.63;3.33;;;22.40;53.60;;;;;;5041903;28;20533;-75
2024/01/30 10:38:34;;;;;;;3.97;3.67;;;22.50;53.60;;;;;;5038614;28;20568;-75
2024/01/30 10:41:03;;;;;;;3.40;3.20;;;22.50;53.50;;;;;;5042636;28;20486;-76
2024/01/30 10:43:34;;;;;;;3.60;3.40;;;22.60;53.30;;;;;;5043456;28;20466;-76
2024/01/30 10:46:12;;;;;;;4.37;4.00;;;22.70;53.30;;;;;;5039882;28;20466;-76
2024/01/30 10:48:44;;;;;;;3.80;3.50;;;22.80;53.20;;;;;;5040786;28;20454;-75
2024/01/30 10:51:14;;;;;;;3.67;3.30;;;22.80;53.10;;;;;;5042353;28;20490;-75
2024/01/30 10:53:48;;;;;;;4.40;3.30;;;22.90;53.00;;;;;;5037913;28;20883;-77
2024/01/30 10:56:18;;;;;;;3.83;3.53;;;22.90;52.90;;;;;;5040282;28;20550;-77
2024/01/30 10:58:46;;;;;;;3.60;3.30;;;23.00;52.90;;;;;;5039243;28;20465;-75
2024/01/30 11:01:15;;;;;;;4.70;4.10;;;23.00;52.90;;;;;;5044401;28;20474;-75
2024/01/30 11:03:44;;;;;;;3.97;3.67;;;23.00;52.80;;;;;;5042269;28;20492;-75
2024/01/30 11:06:13;;;;;;;4.07;3.77;;;23.10;52.70;;;;;;5044342;28;20872;-75
2024/01/30 11:08:44;;;;;;;4.40;4.10;;;23.10;52.70;;;;;;5043660;28;21040;-74
2024/01/30 11:11:12;;;;;;;3.60;3.30;;;23.20;52.60;;;;;;5045924;28;20945;-74
2024/01/30 11:13:45;;;;;;;3.80;3.47;;;23.20;52.50;;;;;;5046189;28;20985;-74
2024/01/30 11:16:13;;;;;;;4.10;3.60;;;23.20;52.50;;;;;;5041952;28;20466;-74
2024/01/30 11:18:42;;;;;;;3.97;3.67;;;23.30;52.40;;;;;;5043471;28;20467;-79
2024/01/30 11:21:15;;;;;;;3.80;3.50;;;23.30;52.30;;;;;;5038200;28;20914;-78
2024/01/30 11:23:44;;;;;;;4.40;4.00;;;23.20;52.20;;;;;;5052653;28;20494;-76
2024/01/30 11:26:13;;;;;;;3.80;3.50;;;23.20;52.00;;;;;;5046880;28;20466;-77
2024/01/30 11:28:41;;;;;;;4.10;3.70;;;23.20;52.10;;;;;;5050149;28;20457;-78
2024/01/30 11:31:12;;;;;;;3.93;3.57;;;23.10;52.10;;;;;;5054808;28;20515;-78
2024/01/30 11:33:40;;;;;;;4.20;3.90;;;23.20;52.20;;;;;;5052344;28;20901;-76
2024/01/30 11:36:09;;;;;;;5.10;4.60;;;23.30;52.20;;;;;;5046021;28;20471;-77
2024/01/30 11:38:38;;;;;;;4.50;4.20;;;23.40;51.90;;;;;;5048954;28;20459;-77
2024/01/30 11:41:10;;;;;;;4.73;4.33;;;23.40;51.80;;;;;;5065480;28;20565;-77
2024/01/30 11:43:39;;;;;;;4.77;4.37;;;23.40;51.80;;;;;;5048515;28;20459;-79
2024/01/30 11:46:09;;;;;;;3.87;3.57;;;23.40;51.80;;;;;;5048801;28;20516;-78
2024/01/30 11:48:37;;;;;;;3.57;3.37;;;23.40;51.80;;;;;;5050902;28;21039;-76
2024/01/30 11:51:06;;;;;;;4.10;3.80;;;23.30;51.90;;;;;;5046185;28;20961;-78
2024/01/30 11:53:34;;;;;;;4.50;4.20;;;23.30;51.90;;;;;;5047044;28;20455;-78
2024/01/30 11:56:03;;;;;;;5.00;3.93;;;23.30;51.90;;;;;;5042464;28;20550;-79
2024/01/30 11:58:33;;;;;;;3.87;3.67;;;23.30;52.00;;;;;;5045585;28;20627;-78
2024/01/30 12:01:02;;;;;;;4.07;3.77;;;23.30;51.90;;;;;;5044904;28;20467;-76
2024/01/30 12:03:30;;;;;;;4.50;4.10;;;23.30;51.90;;;;;;5045191;28;20547;-75
2024/01/30 12:05:59;;;;;;;4.00;3.70;;;23.30;51.90;;;;;;5048381;28;20461;-75
2024/01/30 12:08:28;;;;;;;3.40;3.20;;;23.30;51.70;;;;;;5046918;28;20962;-75
2024/01/30 12:10:58;;;;;;;3.60;3.30;;;23.30;51.60;;;;;;5033747;28;20452;-75
2024/01/30 12:13:27;;;;;;;3.43;3.17;;;23.20;51.70;;;;;;5041507;28;20534;-75
2024/01/30 12:16:02;;;;;;;4.97;4.50;;;23.20;51.80;;;;;;5035586;28;20461;-75
2024/01/30 12:18:30;;;;;;;4.33;4.03;;;23.20;51.70;;;;;;5043295;28;20913;-75
2024/01/30 12:20:59;;;;;;;4.77;4.37;;;23.20;51.80;;;;;;5052944;28;20486;-75
2024/01/30 12:23:29;;;;;;;5.37;4.97;;;23.20;51.80;;;;;;5044122;28;20486;-75
2024/01/30 12:25:58;;;;;;;4.13;3.83;;;23.20;51.70;;;;;;5046909;28;21055;-75
2024/01/30 12:28:26;;;;;;;3.90;3.60;;;23.10;51.80;;;;;;5040503;28;20942;-75
2024/01/30 12:30:57;;;;;;;4.20;3.73;;;23.10;51.80;;;;;;5041143;28;20474;-75
2024/01/30 12:33:28;;;;;;;4.50;4.20;;;23.10;51.80;;;;;;5038101;28;20982;-75
2024/01/30 12:35:57;;;;;;;5.27;4.77;;;23.00;51.90;;;;;;5039453;28;20554;-75
2024/01/30 12:38:31;;;;;;;4.87;4.47;;;23.00;52.00;;;;;;5052086;28;20492;-75
2024/01/30 12:40:59;;;;;;;5.17;4.70;;;23.00;52.00;;;;;;5044723;28;20478;-75
2024/01/30 12:43:28;;;;;;;5.13;4.70;;;23.00;52.00;;;;;;5036999;28;20451;-75
2024/01/30 12:46:06;;;;;;;5.33;4.83;;;23.00;52.00;;;;;;5045183;28;20788;-75
2024/01/30 12:48:36;;;;;;;5.50;5.00;;;22.90;52.20;;;;;;5038655;28;20954;-75
2024/01/30 12:51:05;;;;;;;6.30;5.60;;;22.90;52.10;;;;;;5037819;28;20457;-74
2024/01/30 12:53:34;;;;;;;6.57;5.43;;;22.90;52.30;;;;;;5042714;28;20457;-75
2024/01/30 12:56:02;;;;;;;6.57;5.20;;;22.90;52.30;;;;;;5039486;28;20462;-75